sensor_id;sensor_type;location;lat;lon;timestamp;temperature;humidity
8888;DHT22;4480;52.370;9.748;2023-04-25T00:01:27;7.60;99.90
8888;DHT22;4480;52.370;9.748;2023-04-25T00:03:53;7.60;99.90
8888;DHT22;4480;52.370;9.748;2023-04-25T00:06:21;7.60;99.90
8888;DHT22;4480;52.370;9.748;2023-04-25T00:08:51;7.50;99.90
8888;DHT22;4480;52.370;9.748;2023-04-25T00:11:18;7.50;99.90
8888;DHT22;4480;52.370;9.748;2023-04-25T00:13:45;7.50;99.90
8888;DHT22;4480;52.370;9.748;2023-04-25T00:16:12;7.50;99.90
8888;DHT22;4480;52.370;9.748;2023-04-25T00:18:41;7.50;99.90
8888;DHT22;4480;52.370;9.748;2023-04-25T00:21:08;7.50;99.90
8888;DHT22;4480;52.370;9.748;2023-04-25T00:23:37;7.50;99.90
8888;DHT22;4480;52.370;9.748;2023-04-25T00:26:04;7.50;99.90
8888;DHT22;4480;52.370;9.748;2023-04-25T00:28:31;7.60;99.90
8888;DHT22;4480;52.370;9.748;2023-04-25T00:30:58;7.60;99.90
8888;DHT22;4480;52.370;9.748;2023-04-25T00:33:25;7.60;99.90
8888;DHT22;4480;52.370;9.748;2023-04-25T00:35:51;7.60;99.90
8888;DHT22;4480;52.370;9.748;2023-04-25T00:38:18;7.60;99.90
8888;DHT22;4480;52.370;9.748;2023-04-25T00:40:46;7.60;99.90
8888;DHT22;4480;52.370;9.748;2023-04-25T00:43:13;7.60;99.90
8888;DHT22;4480;52.370;9.748;2023-04-25T00:45:40;7.60;99.90
8888;DHT22;4480;52.370;9.748;2023-04-25T00:48:07;7.60;99.90
8888;DHT22;4480;52.370;9.748;2023-04-25T00:50:34;7.60;99.90
8888;DHT22;4480;52.370;9.748;2023-04-25T00:53:02;7.60;99.90
8888;DHT22;4480;52.370;9.748;2023-04-25T00:55:29;7.60;99.90
8888;DHT22;4480;52.370;9.748;2023-04-25T00:57:59;7.60;99.90
8888;DHT22;4480;52.370;9.748;2023-04-25T01:00:26;7.60;99.90
8888;DHT22;4480;52.370;9.748;2023-04-25T01:02:53;7.60;99.90
8888;DHT22;4480;52.370;9.748;2023-04-25T01:05:19;7.70;99.90
8888;DHT22;4480;52.370;9.748;2023-04-25T01:07:46;7.70;99.90
8888;DHT22;4480;52.370;9.748;2023-04-25T01:10:13;7.70;99.90
8888;DHT22;4480;52.370;9.748;2023-04-25T01:12:40;7.60;99.90
8888;DHT22;4480;52.370;9.748;2023-04-25T01:15:09;7.60;99.90
8888;DHT22;4480;52.370;9.748;2023-04-25T01:17:36;7.60;99.90
8888;DHT22;4480;52.370;9.748;2023-04-25T01:20:03;7.60;99.90
8888;DHT22;4480;52.370;9.748;2023-04-25T01:22:32;7.60;99.90
8888;DHT22;4480;52.370;9.748;2023-04-25T01:25:00;7.60;99.90
8888;DHT22;4480;52.370;9.748;2023-04-25T01:27:27;7.60;99.90
8888;DHT22;4480;52.370;9.748;2023-04-25T01:29:54;7.60;99.90
8888;DHT22;4480;52.370;9.748;2023-04-25T01:32:23;7.60;99.90
8888;DHT22;4480;52.370;9.748;2023-04-25T01:34:50;7.60;99.90
8888;DHT22;4480;52.370;9.748;2023-04-25T01:37:17;7.60;99.90
8888;DHT22;4480;52.370;9.748;2023-04-25T01:39:45;7.50;99.90
8888;DHT22;4480;52.370;9.748;2023-04-25T01:42:12;7.60;99.90
8888;DHT22;4480;52.370;9.748;2023-04-25T01:44:39;7.60;99.90
8888;DHT22;4480;52.370;9.748;2023-04-25T01:47:06;7.60;99.90
8888;DHT22;4480;52.370;9.748;2023-04-25T01:49:33;7.60;99.90
8888;DHT22;4480;52.370;9.748;2023-04-25T01:52:00;7.60;99.90
8888;DHT22;4480;52.370;9.748;2023-04-25T01:54:26;7.60;99.90
8888;DHT22;4480;52.370;9.748;2023-04-25T01:56:57;7.60;99.90
8888;DHT22;4480;52.370;9.748;2023-04-25T01:59:24;7.60;99.90
8888;DHT22;4480;52.370;9.748;2023-04-25T02:01:50;7.60;99.90
8888;DHT22;4480;52.370;9.748;2023-04-25T02:04:17;7.60;99.90
8888;DHT22;4480;52.370;9.748;2023-04-25T02:06:44;7.60;99.90
8888;DHT22;4480;52.370;9.748;2023-04-25T02:09:11;7.60;99.90
8888;DHT22;4480;52.370;9.748;2023-04-25T02:11:38;7.50;99.90
8888;DHT22;4480;52.370;9.748;2023-04-25T02:14:06;7.50;99.90
8888;DHT22;4480;52.370;9.748;2023-04-25T02:16:33;7.50;99.90
8888;DHT22;4480;52.370;9.748;2023-04-25T02:19:01;7.40;99.90
8888;DHT22;4480;52.370;9.748;2023-04-25T02:21:28;7.30;99.90
8888;DHT22;4480;52.370;9.748;2023-04-25T02:23:56;7.20;99.90
8888;DHT22;4480;52.370;9.748;2023-04-25T02:26:22;7.00;99.90
8888;DHT22;4480;52.370;9.748;2023-04-25T02:28:49;6.90;99.90
8888;DHT22;4480;52.370;9.748;2023-04-25T02:31:18;6.80;99.90
8888;DHT22;4480;52.370;9.748;2023-04-25T02:33:45;6.70;99.90
8888;DHT22;4480;52.370;9.748;2023-04-25T02:36:12;6.60;99.90
8888;DHT22;4480;52.370;9.748;2023-04-25T02:38:38;6.60;99.90
8888;DHT22;4480;52.370;9.748;2023-04-25T02:41:05;6.60;99.90
8888;DHT22;4480;52.370;9.748;2023-04-25T02:43:32;6.60;99.90
8888;DHT22;4480;52.370;9.748;2023-04-25T02:45:59;6.60;99.90
8888;DHT22;4480;52.370;9.748;2023-04-25T02:48:27;6.60;99.90
8888;DHT22;4480;52.370;9.748;2023-04-25T02:50:54;6.60;99.90
8888;DHT22;4480;52.370;9.748;2023-04-25T02:53:21;6.60;99.90
8888;DHT22;4480;52.370;9.748;2023-04-25T02:55:48;6.60;99.90
8888;DHT22;4480;52.370;9.748;2023-04-25T02:58:15;6.60;99.90
8888;DHT22;4480;52.370;9.748;2023-04-25T03:00:42;6.60;99.90
8888;DHT22;4480;52.370;9.748;2023-04-25T03:03:09;6.60;99.90
8888;DHT22;4480;52.370;9.748;2023-04-25T03:05:37;6.70;99.90
8888;DHT22;4480;52.370;9.748;2023-04-25T03:08:04;6.60;99.90
8888;DHT22;4480;52.370;9.748;2023-04-25T03:10:31;6.70;99.90
8888;DHT22;4480;52.370;9.748;2023-04-25T03:12:57;6.70;99.90
8888;DHT22;4480;52.370;9.748;2023-04-25T03:15:24;6.60;99.90
8888;DHT22;4480;52.370;9.748;2023-04-25T03:17:51;6.60;99.90
8888;DHT22;4480;52.370;9.748;2023-04-25T03:20:18;6.60;99.90
8888;DHT22;4480;52.370;9.748;2023-04-25T03:22:46;6.60;99.90
8888;DHT22;4480;52.370;9.748;2023-04-25T03:25:12;6.60;99.90
8888;DHT22;4480;52.370;9.748;2023-04-25T03:27:39;6.60;99.90
8888;DHT22;4480;52.370;9.748;2023-04-25T03:30:07;6.60;99.90
8888;DHT22;4480;52.370;9.748;2023-04-25T03:32:34;6.60;99.90
8888;DHT22;4480;52.370;9.748;2023-04-25T03:35:00;6.60;99.90
8888;DHT22;4480;52.370;9.748;2023-04-25T03:37:27;6.70;99.90
8888;DHT22;4480;52.370;9.748;2023-04-25T03:39:55;6.70;99.90
8888;DHT22;4480;52.370;9.748;2023-04-25T03:42:22;6.70;99.90
8888;DHT22;4480;52.370;9.748;2023-04-25T03:44:49;6.70;99.90
8888;DHT22;4480;52.370;9.748;2023-04-25T03:47:16;6.70;99.90
8888;DHT22;4480;52.370;9.748;2023-04-25T03:49:43;6.70;99.90
8888;DHT22;4480;52.370;9.748;2023-04-25T03:52:10;6.70;99.90
8888;DHT22;4480;52.370;9.748;2023-04-25T03:54:36;6.70;99.90
8888;DHT22;4480;52.370;9.748;2023-04-25T03:57:04;6.70;99.90
8888;DHT22;4480;52.370;9.748;2023-04-25T03:59:31;6.70;99.90
8888;DHT22;4480;52.370;9.748;2023-04-25T04:01:58;6.70;99.90
8888;DHT22;4480;52.370;9.748;2023-04-25T04:04:25;6.70;99.90
8888;DHT22;4480;52.370;9.748;2023-04-25T04:06:51;6.60;99.90
8888;DHT22;4480;52.370;9.748;2023-04-25T04:11:37;6.60;99.90
8888;DHT22;4480;52.370;9.748;2023-04-25T04:14:04;6.60;99.90
8888;DHT22;4480;52.370;9.748;2023-04-25T04:16:31;6.60;99.90
8888;DHT22;4480;52.370;9.748;2023-04-25T04:18:58;6.60;99.90
8888;DHT22;4480;52.370;9.748;2023-04-25T04:21:25;6.60;99.90
8888;DHT22;4480;52.370;9.748;2023-04-25T04:23:52;6.60;99.90
8888;DHT22;4480;52.370;9.748;2023-04-25T04:26:19;6.60;99.90
8888;DHT22;4480;52.370;9.748;2023-04-25T04:28:50;6.60;99.90
8888;DHT22;4480;52.370;9.748;2023-04-25T04:31:17;6.70;99.90
8888;DHT22;4480;52.370;9.748;2023-04-25T04:33:45;6.60;99.90
8888;DHT22;4480;52.370;9.748;2023-04-25T04:36:12;6.60;99.90
8888;DHT22;4480;52.370;9.748;2023-04-25T04:38:39;6.70;99.90
8888;DHT22;4480;52.370;9.748;2023-04-25T04:41:06;6.70;99.90
8888;DHT22;4480;52.370;9.748;2023-04-25T04:43:33;6.70;99.90
8888;DHT22;4480;52.370;9.748;2023-04-25T04:46:01;6.70;99.90
8888;DHT22;4480;52.370;9.748;2023-04-25T04:48:28;6.70;99.90
8888;DHT22;4480;52.370;9.748;2023-04-25T04:50:58;6.70;99.90
8888;DHT22;4480;52.370;9.748;2023-04-25T04:53:24;6.80;99.90
8888;DHT22;4480;52.370;9.748;2023-04-25T04:55:51;6.80;99.90
8888;DHT22;4480;52.370;9.748;2023-04-25T04:58:18;6.80;99.90
8888;DHT22;4480;52.370;9.748;2023-04-25T05:00:45;6.80;99.90
8888;DHT22;4480;52.370;9.748;2023-04-25T05:03:13;6.80;99.90
8888;DHT22;4480;52.370;9.748;2023-04-25T05:05:40;6.80;99.90
8888;DHT22;4480;52.370;9.748;2023-04-25T05:08:07;6.80;99.90
8888;DHT22;4480;52.370;9.748;2023-04-25T05:10:34;6.90;99.90
8888;DHT22;4480;52.370;9.748;2023-04-25T05:13:01;6.90;99.90
8888;DHT22;4480;52.370;9.748;2023-04-25T05:15:28;6.90;99.90
8888;DHT22;4480;52.370;9.748;2023-04-25T05:17:55;7.00;99.90
8888;DHT22;4480;52.370;9.748;2023-04-25T05:20:23;7.00;99.90
8888;DHT22;4480;52.370;9.748;2023-04-25T05:22:50;7.00;99.90
8888;DHT22;4480;52.370;9.748;2023-04-25T05:25:17;7.10;99.90
8888;DHT22;4480;52.370;9.748;2023-04-25T05:27:43;7.10;99.90
8888;DHT22;4480;52.370;9.748;2023-04-25T05:30:11;7.10;99.90
8888;DHT22;4480;52.370;9.748;2023-04-25T05:32:38;7.10;99.90
8888;DHT22;4480;52.370;9.748;2023-04-25T05:35:06;7.20;99.90
8888;DHT22;4480;52.370;9.748;2023-04-25T05:37:35;7.20;99.90
8888;DHT22;4480;52.370;9.748;2023-04-25T05:40:02;7.20;99.90
8888;DHT22;4480;52.370;9.748;2023-04-25T05:42:32;7.30;99.90
8888;DHT22;4480;52.370;9.748;2023-04-25T05:44:58;7.40;99.90
8888;DHT22;4480;52.370;9.748;2023-04-25T05:47:26;7.50;99.90
8888;DHT22;4480;52.370;9.748;2023-04-25T05:49:53;7.50;99.90
8888;DHT22;4480;52.370;9.748;2023-04-25T05:52:20;7.60;99.90
8888;DHT22;4480;52.370;9.748;2023-04-25T05:54:48;7.60;99.90
8888;DHT22;4480;52.370;9.748;2023-04-25T05:57:22;7.70;99.90
8888;DHT22;4480;52.370;9.748;2023-04-25T05:59:49;7.70;99.90
8888;DHT22;4480;52.370;9.748;2023-04-25T06:02:15;7.80;99.90
8888;DHT22;4480;52.370;9.748;2023-04-25T06:04:42;7.80;99.90
8888;DHT22;4480;52.370;9.748;2023-04-25T06:07:09;8.00;99.90
8888;DHT22;4480;52.370;9.748;2023-04-25T06:09:36;8.00;99.90
8888;DHT22;4480;52.370;9.748;2023-04-25T06:12:06;8.00;99.90
8888;DHT22;4480;52.370;9.748;2023-04-25T06:14:33;8.00;99.90
8888;DHT22;4480;52.370;9.748;2023-04-25T06:17:00;8.00;99.90
8888;DHT22;4480;52.370;9.748;2023-04-25T06:19:31;8.00;99.90
8888;DHT22;4480;52.370;9.748;2023-04-25T06:21:58;8.00;99.50
8888;DHT22;4480;52.370;9.748;2023-04-25T06:24:25;8.00;99.50
8888;DHT22;4480;52.370;9.748;2023-04-25T06:26:52;8.00;99.50
8888;DHT22;4480;52.370;9.748;2023-04-25T06:29:20;8.00;99.40
8888;DHT22;4480;52.370;9.748;2023-04-25T06:31:47;8.10;99.10
8888;DHT22;4480;52.370;9.748;2023-04-25T06:34:15;8.10;98.70
8888;DHT22;4480;52.370;9.748;2023-04-25T06:36:43;8.10;98.10
8888;DHT22;4480;52.370;9.748;2023-04-25T06:39:10;8.10;97.60
8888;DHT22;4480;52.370;9.748;2023-04-25T06:41:37;8.00;97.30
8888;DHT22;4480;52.370;9.748;2023-04-25T06:44:06;8.00;97.30
8888;DHT22;4480;52.370;9.748;2023-04-25T06:46:34;8.00;97.00
8888;DHT22;4480;52.370;9.748;2023-04-25T06:49:01;8.10;96.70
8888;DHT22;4480;52.370;9.748;2023-04-25T06:51:28;8.20;96.00
8888;DHT22;4480;52.370;9.748;2023-04-25T06:53:59;8.20;95.50
8888;DHT22;4480;52.370;9.748;2023-04-25T06:56:29;8.40;95.30
8888;DHT22;4480;52.370;9.748;2023-04-25T06:58:59;8.60;94.10
8888;DHT22;4480;52.370;9.748;2023-04-25T07:01:26;8.70;93.10
8888;DHT22;4480;52.370;9.748;2023-04-25T07:03:55;8.70;92.80
8888;DHT22;4480;52.370;9.748;2023-04-25T07:06:21;8.80;92.60
8888;DHT22;4480;52.370;9.748;2023-04-25T07:08:48;8.90;91.30
8888;DHT22;4480;52.370;9.748;2023-04-25T07:11:15;8.90;91.00
8888;DHT22;4480;52.370;9.748;2023-04-25T07:13:42;9.00;90.30
8888;DHT22;4480;52.370;9.748;2023-04-25T07:16:09;9.10;87.80
8888;DHT22;4480;52.370;9.748;2023-04-25T07:18:35;8.90;86.20
8888;DHT22;4480;52.370;9.748;2023-04-25T07:21:04;8.80;87.40
8888;DHT22;4480;52.370;9.748;2023-04-25T07:23:31;8.80;88.40
8888;DHT22;4480;52.370;9.748;2023-04-25T07:25:57;8.70;87.20
8888;DHT22;4480;52.370;9.748;2023-04-25T07:28:24;8.60;85.30
8888;DHT22;4480;52.370;9.748;2023-04-25T07:30:51;8.60;85.80
8888;DHT22;4480;52.370;9.748;2023-04-25T07:33:18;8.60;84.60
8888;DHT22;4480;52.370;9.748;2023-04-25T07:35:45;8.60;82.20
8888;DHT22;4480;52.370;9.748;2023-04-25T07:38:14;8.50;82.00
8888;DHT22;4480;52.370;9.748;2023-04-25T07:40:40;8.60;82.00
8888;DHT22;4480;52.370;9.748;2023-04-25T07:43:07;8.70;81.90
8888;DHT22;4480;52.370;9.748;2023-04-25T07:45:34;8.80;81.90
8888;DHT22;4480;52.370;9.748;2023-04-25T07:48:01;8.80;80.50
8888;DHT22;4480;52.370;9.748;2023-04-25T07:50:28;8.80;79.80
8888;DHT22;4480;52.370;9.748;2023-04-25T07:52:56;8.90;80.00
8888;DHT22;4480;52.370;9.748;2023-04-25T07:55:25;8.90;78.30
8888;DHT22;4480;52.370;9.748;2023-04-25T07:57:52;9.00;76.40
8888;DHT22;4480;52.370;9.748;2023-04-25T08:00:19;8.90;76.90
8888;DHT22;4480;52.370;9.748;2023-04-25T08:02:46;8.90;76.00
8888;DHT22;4480;52.370;9.748;2023-04-25T08:05:13;9.00;74.00
8888;DHT22;4480;52.370;9.748;2023-04-25T08:07:40;8.90;72.20
8888;DHT22;4480;52.370;9.748;2023-04-25T08:10:08;8.90;72.60
8888;DHT22;4480;52.370;9.748;2023-04-25T08:12:38;9.00;73.00
8888;DHT22;4480;52.370;9.748;2023-04-25T08:15:06;9.10;72.00
8888;DHT22;4480;52.370;9.748;2023-04-25T08:17:32;9.20;71.10
8888;DHT22;4480;52.370;9.748;2023-04-25T08:19:59;9.30;69.80
8888;DHT22;4480;52.370;9.748;2023-04-25T08:22:26;9.20;69.70
8888;DHT22;4480;52.370;9.748;2023-04-25T08:24:53;9.20;69.40
8888;DHT22;4480;52.370;9.748;2023-04-25T08:27:19;9.30;69.10
8888;DHT22;4480;52.370;9.748;2023-04-25T08:29:48;9.50;67.80
8888;DHT22;4480;52.370;9.748;2023-04-25T08:32:16;9.60;66.40
8888;DHT22;4480;52.370;9.748;2023-04-25T08:34:42;9.70;64.70
8888;DHT22;4480;52.370;9.748;2023-04-25T08:37:10;9.80;64.00
8888;DHT22;4480;52.370;9.748;2023-04-25T08:39:37;9.90;61.60
8888;DHT22;4480;52.370;9.748;2023-04-25T08:42:08;10.00;59.80
8888;DHT22;4480;52.370;9.748;2023-04-25T08:44:36;10.20;59.40
8888;DHT22;4480;52.370;9.748;2023-04-25T08:47:07;10.30;57.60
8888;DHT22;4480;52.370;9.748;2023-04-25T08:49:35;10.40;54.50
8888;DHT22;4480;52.370;9.748;2023-04-25T08:52:05;10.50;53.90
8888;DHT22;4480;52.370;9.748;2023-04-25T08:54:33;10.70;53.00
8888;DHT22;4480;52.370;9.748;2023-04-25T08:57:02;10.60;52.20
8888;DHT22;4480;52.370;9.748;2023-04-25T08:59:30;10.50;52.40
8888;DHT22;4480;52.370;9.748;2023-04-25T09:01:57;10.30;52.70
8888;DHT22;4480;52.370;9.748;2023-04-25T09:04:25;10.20;53.10
8888;DHT22;4480;52.370;9.748;2023-04-25T09:06:52;10.20;53.60
8888;DHT22;4480;52.370;9.748;2023-04-25T09:09:19;10.10;53.90
8888;DHT22;4480;52.370;9.748;2023-04-25T09:11:46;10.00;54.10
8888;DHT22;4480;52.370;9.748;2023-04-25T09:14:14;10.00;54.20
8888;DHT22;4480;52.370;9.748;2023-04-25T09:16:58;9.80;54.80
8888;DHT22;4480;52.370;9.748;2023-04-25T09:19:29;9.60;54.00
8888;DHT22;4480;52.370;9.748;2023-04-25T09:21:57;9.60;54.10
8888;DHT22;4480;52.370;9.748;2023-04-25T09:24:34;9.70;54.00
8888;DHT22;4480;52.370;9.748;2023-04-25T09:27:03;9.80;54.10
8888;DHT22;4480;52.370;9.748;2023-04-25T09:29:31;10.00;51.60
8888;DHT22;4480;52.370;9.748;2023-04-25T09:32:19;10.10;49.60
8888;DHT22;4480;52.370;9.748;2023-04-25T09:34:49;10.10;48.20
8888;DHT22;4480;52.370;9.748;2023-04-25T09:37:20;10.20;47.20
8888;DHT22;4480;52.370;9.748;2023-04-25T09:39:47;10.20;46.60
8888;DHT22;4480;52.370;9.748;2023-04-25T09:42:16;10.30;46.20
8888;DHT22;4480;52.370;9.748;2023-04-25T09:44:44;10.40;46.20
8888;DHT22;4480;52.370;9.748;2023-04-25T09:47:12;10.40;46.00
8888;DHT22;4480;52.370;9.748;2023-04-25T09:49:40;10.50;45.60
8888;DHT22;4480;52.370;9.748;2023-04-25T09:52:14;10.50;45.20
8888;DHT22;4480;52.370;9.748;2023-04-25T09:54:41;10.60;45.00
8888;DHT22;4480;52.370;9.748;2023-04-25T09:57:11;10.70;45.00
8888;DHT22;4480;52.370;9.748;2023-04-25T09:59:39;10.90;45.10
8888;DHT22;4480;52.370;9.748;2023-04-25T10:02:09;11.10;45.20
8888;DHT22;4480;52.370;9.748;2023-04-25T10:04:41;11.40;44.50
8888;DHT22;4480;52.370;9.748;2023-04-25T10:07:09;11.30;43.60
8888;DHT22;4480;52.370;9.748;2023-04-25T10:09:40;11.30;44.00
8888;DHT22;4480;52.370;9.748;2023-04-25T10:12:07;11.30;44.30
8888;DHT22;4480;52.370;9.748;2023-04-25T10:14:35;11.40;44.50
8888;DHT22;4480;52.370;9.748;2023-04-25T10:17:02;11.30;44.50
8888;DHT22;4480;52.370;9.748;2023-04-25T10:19:30;11.20;44.30
8888;DHT22;4480;52.370;9.748;2023-04-25T10:22:04;11.00;44.50
8888;DHT22;4480;52.370;9.748;2023-04-25T10:24:35;10.80;45.00
8888;DHT22;4480;52.370;9.748;2023-04-25T10:27:02;10.70;45.60
8888;DHT22;4480;52.370;9.748;2023-04-25T10:29:29;10.60;46.10
8888;DHT22;4480;52.370;9.748;2023-04-25T10:31:57;10.70;46.40
8888;DHT22;4480;52.370;9.748;2023-04-25T10:34:25;10.60;46.20
8888;DHT22;4480;52.370;9.748;2023-04-25T10:37:04;10.50;46.10
8888;DHT22;4480;52.370;9.748;2023-04-25T10:39:34;10.50;46.90
8888;DHT22;4480;52.370;9.748;2023-04-25T10:42:02;10.50;47.70
8888;DHT22;4480;52.370;9.748;2023-04-25T10:44:29;10.50;48.00
8888;DHT22;4480;52.370;9.748;2023-04-25T10:46:57;10.50;48.10
8888;DHT22;4480;52.370;9.748;2023-04-25T10:49:32;10.50;48.10
8888;DHT22;4480;52.370;9.748;2023-04-25T10:52:16;10.50;48.40
8888;DHT22;4480;52.370;9.748;2023-04-25T10:54:48;10.60;48.30
8888;DHT22;4480;52.370;9.748;2023-04-25T10:57:32;10.70;48.30
8888;DHT22;4480;52.370;9.748;2023-04-25T11:00:07;10.80;48.20
8888;DHT22;4480;52.370;9.748;2023-04-25T11:02:38;11.00;48.00
8888;DHT22;4480;52.370;9.748;2023-04-25T11:05:07;11.00;47.20
8888;DHT22;4480;52.370;9.748;2023-04-25T11:07:39;11.00;46.90
8888;DHT22;4480;52.370;9.748;2023-04-25T11:10:10;11.00;46.00
8888;DHT22;4480;52.370;9.748;2023-04-25T11:12:37;10.80;46.00
8888;DHT22;4480;52.370;9.748;2023-04-25T11:15:05;10.60;46.50
8888;DHT22;4480;52.370;9.748;2023-04-25T11:17:33;10.40;46.90
8888;DHT22;4480;52.370;9.748;2023-04-25T11:20:00;10.50;47.30
8888;DHT22;4480;52.370;9.748;2023-04-25T11:22:28;10.70;47.40
8888;DHT22;4480;52.370;9.748;2023-04-25T11:24:55;10.80;46.90
8888;DHT22;4480;52.370;9.748;2023-04-25T11:27:23;11.10;46.20
8888;DHT22;4480;52.370;9.748;2023-04-25T11:29:51;11.40;45.10
8888;DHT22;4480;52.370;9.748;2023-04-25T11:32:18;11.60;44.90
8888;DHT22;4480;52.370;9.748;2023-04-25T11:34:46;11.40;45.20
8888;DHT22;4480;52.370;9.748;2023-04-25T11:37:13;11.00;45.90
8888;DHT22;4480;52.370;9.748;2023-04-25T11:39:43;10.60;46.80
8888;DHT22;4480;52.370;9.748;2023-04-25T11:42:11;10.20;47.80
8888;DHT22;4480;52.370;9.748;2023-04-25T11:44:40;9.90;49.70
8888;DHT22;4480;52.370;9.748;2023-04-25T11:47:07;9.70;51.60
8888;DHT22;4480;52.370;9.748;2023-04-25T11:49:34;9.40;53.60
8888;DHT22;4480;52.370;9.748;2023-04-25T11:52:01;9.20;55.80
8888;DHT22;4480;52.370;9.748;2023-04-25T11:54:28;9.00;57.30
8888;DHT22;4480;52.370;9.748;2023-04-25T11:56:55;8.90;58.10
8888;DHT22;4480;52.370;9.748;2023-04-25T11:59:24;9.10;58.40
8888;DHT22;4480;52.370;9.748;2023-04-25T12:01:53;9.30;58.30
8888;DHT22;4480;52.370;9.748;2023-04-25T12:04:21;9.60;57.90
8888;DHT22;4480;52.370;9.748;2023-04-25T12:06:49;9.80;57.20
8888;DHT22;4480;52.370;9.748;2023-04-25T12:09:18;10.00;55.40
8888;DHT22;4480;52.370;9.748;2023-04-25T12:11:48;10.20;54.60
8888;DHT22;4480;52.370;9.748;2023-04-25T12:14:22;10.30;53.60
8888;DHT22;4480;52.370;9.748;2023-04-25T12:16:50;10.40;53.30
8888;DHT22;4480;52.370;9.748;2023-04-25T12:19:19;10.60;52.60
8888;DHT22;4480;52.370;9.748;2023-04-25T12:21:47;11.00;51.90
8888;DHT22;4480;52.370;9.748;2023-04-25T12:24:15;11.30;51.10
8888;DHT22;4480;52.370;9.748;2023-04-25T12:26:49;11.60;49.80
8888;DHT22;4480;52.370;9.748;2023-04-25T12:29:22;11.60;47.50
8888;DHT22;4480;52.370;9.748;2023-04-25T12:31:49;11.60;46.10
8888;DHT22;4480;52.370;9.748;2023-04-25T12:34:16;11.60;44.10
8888;DHT22;4480;52.370;9.748;2023-04-25T12:36:45;11.60;43.50
8888;DHT22;4480;52.370;9.748;2023-04-25T12:39:15;11.50;43.20
8888;DHT22;4480;52.370;9.748;2023-04-25T12:41:42;11.50;43.80
8888;DHT22;4480;52.370;9.748;2023-04-25T12:44:09;11.20;45.10
8888;DHT22;4480;52.370;9.748;2023-04-25T12:46:36;11.00;45.70
8888;DHT22;4480;52.370;9.748;2023-04-25T12:49:03;10.70;46.10
8888;DHT22;4480;52.370;9.748;2023-04-25T12:51:31;10.30;46.40
8888;DHT22;4480;52.370;9.748;2023-04-25T12:54:00;9.90;47.90
8888;DHT22;4480;52.370;9.748;2023-04-25T12:56:26;9.70;48.60
8888;DHT22;4480;52.370;9.748;2023-04-25T12:58:54;9.70;48.90
8888;DHT22;4480;52.370;9.748;2023-04-25T13:01:21;9.80;48.10
8888;DHT22;4480;52.370;9.748;2023-04-25T13:03:48;9.80;47.70
8888;DHT22;4480;52.370;9.748;2023-04-25T13:06:16;9.70;47.90
8888;DHT22;4480;52.370;9.748;2023-04-25T13:08:43;9.70;48.60
8888;DHT22;4480;52.370;9.748;2023-04-25T13:11:11;9.50;49.70
8888;DHT22;4480;52.370;9.748;2023-04-25T13:13:38;9.30;50.70
8888;DHT22;4480;52.370;9.748;2023-04-25T13:16:06;9.20;51.50
8888;DHT22;4480;52.370;9.748;2023-04-25T13:18:33;9.10;53.10
8888;DHT22;4480;52.370;9.748;2023-04-25T13:21:05;8.80;54.70
8888;DHT22;4480;52.370;9.748;2023-04-25T13:23:35;8.60;57.30
8888;DHT22;4480;52.370;9.748;2023-04-25T13:26:01;8.40;58.60
8888;DHT22;4480;52.370;9.748;2023-04-25T13:28:30;8.20;61.80
8888;DHT22;4480;52.370;9.748;2023-04-25T13:30:57;8.10;64.00
8888;DHT22;4480;52.370;9.748;2023-04-25T13:33:24;8.10;66.30
8888;DHT22;4480;52.370;9.748;2023-04-25T13:35:51;8.20;68.00
8888;DHT22;4480;52.370;9.748;2023-04-25T13:38:21;8.20;68.60
8888;DHT22;4480;52.370;9.748;2023-04-25T13:40:49;8.40;68.80
8888;DHT22;4480;52.370;9.748;2023-04-25T13:43:18;8.60;68.40
8888;DHT22;4480;52.370;9.748;2023-04-25T13:45:46;8.80;67.50
8888;DHT22;4480;52.370;9.748;2023-04-25T13:48:13;9.10;66.90
8888;DHT22;4480;52.370;9.748;2023-04-25T13:50:40;9.40;65.60
8888;DHT22;4480;52.370;9.748;2023-04-25T13:53:07;9.60;64.10
8888;DHT22;4480;52.370;9.748;2023-04-25T13:55:34;10.00;62.10
8888;DHT22;4480;52.370;9.748;2023-04-25T13:58:02;10.20;59.80
8888;DHT22;4480;52.370;9.748;2023-04-25T14:00:33;10.20;58.90
8888;DHT22;4480;52.370;9.748;2023-04-25T14:03:02;10.00;58.90
8888;DHT22;4480;52.370;9.748;2023-04-25T14:05:32;9.60;60.80
8888;DHT22;4480;52.370;9.748;2023-04-25T14:08:04;8.70;64.50
8888;DHT22;4480;52.370;9.748;2023-04-25T14:10:31;8.10;69.00
8888;DHT22;4480;52.370;9.748;2023-04-25T14:13:00;7.70;74.00
8888;DHT22;4480;52.370;9.748;2023-04-25T14:15:30;7.60;78.90
8888;DHT22;4480;52.370;9.748;2023-04-25T14:17:57;7.70;82.50
8888;DHT22;4480;52.370;9.748;2023-04-25T14:20:25;8.00;83.30
8888;DHT22;4480;52.370;9.748;2023-04-25T14:22:52;8.30;83.50
8888;DHT22;4480;52.370;9.748;2023-04-25T14:25:21;8.60;82.20
8888;DHT22;4480;52.370;9.748;2023-04-25T14:27:48;8.80;80.20
8888;DHT22;4480;52.370;9.748;2023-04-25T14:30:16;8.70;79.80
8888;DHT22;4480;52.370;9.748;2023-04-25T14:32:43;8.80;80.80
8888;DHT22;4480;52.370;9.748;2023-04-25T14:35:10;8.90;81.80
8888;DHT22;4480;52.370;9.748;2023-04-25T14:37:39;9.00;81.60
8888;DHT22;4480;52.370;9.748;2023-04-25T14:40:06;9.00;80.60
8888;DHT22;4480;52.370;9.748;2023-04-25T14:42:36;9.10;79.90
8888;DHT22;4480;52.370;9.748;2023-04-25T14:45:03;9.20;78.70
8888;DHT22;4480;52.370;9.748;2023-04-25T14:47:30;9.30;77.30
8888;DHT22;4480;52.370;9.748;2023-04-25T14:49:57;9.40;76.40
8888;DHT22;4480;52.370;9.748;2023-04-25T14:52:24;9.60;72.00
8888;DHT22;4480;52.370;9.748;2023-04-25T14:54:52;9.70;67.90
8888;DHT22;4480;52.370;9.748;2023-04-25T14:57:19;9.80;64.70
8888;DHT22;4480;52.370;9.748;2023-04-25T14:59:46;9.90;62.80
8888;DHT22;4480;52.370;9.748;2023-04-25T15:02:12;9.90;60.80
8888;DHT22;4480;52.370;9.748;2023-04-25T15:04:39;9.90;59.80
8888;DHT22;4480;52.370;9.748;2023-04-25T15:07:06;9.80;59.30
8888;DHT22;4480;52.370;9.748;2023-04-25T15:09:33;9.50;60.60
8888;DHT22;4480;52.370;9.748;2023-04-25T15:12:02;9.10;64.10
8888;DHT22;4480;52.370;9.748;2023-04-25T15:14:29;8.60;69.10
8888;DHT22;4480;52.370;9.748;2023-04-25T15:16:56;8.10;77.80
8888;DHT22;4480;52.370;9.748;2023-04-25T15:19:23;7.60;89.00
8888;DHT22;4480;52.370;9.748;2023-04-25T15:21:49;7.10;95.10
8888;DHT22;4480;52.370;9.748;2023-04-25T15:24:16;6.80;98.20
8888;DHT22;4480;52.370;9.748;2023-04-25T15:26:43;6.60;99.70
8888;DHT22;4480;52.370;9.748;2023-04-25T15:29:12;6.50;99.90
8888;DHT22;4480;52.370;9.748;2023-04-25T15:31:39;6.60;99.90
8888;DHT22;4480;52.370;9.748;2023-04-25T15:34:06;6.90;99.90
8888;DHT22;4480;52.370;9.748;2023-04-25T15:36:32;7.10;99.90
8888;DHT22;4480;52.370;9.748;2023-04-25T15:38:59;7.40;99.90
8888;DHT22;4480;52.370;9.748;2023-04-25T15:41:26;7.60;99.90
8888;DHT22;4480;52.370;9.748;2023-04-25T15:43:53;7.80;99.90
8888;DHT22;4480;52.370;9.748;2023-04-25T15:46:21;7.90;99.90
8888;DHT22;4480;52.370;9.748;2023-04-25T15:48:48;8.10;99.90
8888;DHT22;4480;52.370;9.748;2023-04-25T15:51:15;8.20;99.90
8888;DHT22;4480;52.370;9.748;2023-04-25T15:53:42;8.30;99.50
8888;DHT22;4480;52.370;9.748;2023-04-25T15:56:09;8.30;99.20
8888;DHT22;4480;52.370;9.748;2023-04-25T15:58:35;8.40;98.80
8888;DHT22;4480;52.370;9.748;2023-04-25T16:01:02;8.40;97.80
8888;DHT22;4480;52.370;9.748;2023-04-25T16:03:31;8.40;95.70
8888;DHT22;4480;52.370;9.748;2023-04-25T16:05:58;8.20;95.20
8888;DHT22;4480;52.370;9.748;2023-04-25T16:08:25;7.90;97.50
8888;DHT22;4480;52.370;9.748;2023-04-25T16:10:54;7.40;99.90
8888;DHT22;4480;52.370;9.748;2023-04-25T16:13:21;7.00;99.90
8888;DHT22;4480;52.370;9.748;2023-04-25T16:15:47;6.80;99.90
8888;DHT22;4480;52.370;9.748;2023-04-25T16:18:14;6.70;99.90
8888;DHT22;4480;52.370;9.748;2023-04-25T16:20:43;6.70;99.90